Middle Georgia Regional Airport
KMCN : rendu visible

Aérodrome :











RETROUVEZ-NOUS SUR...

 
LOGIN :

S'inscrire | Disclaimer

   EN    FR    IT 

 









Légende :    VFR   VFR Marginal   IFR   IFR Intensif   IFR Très Intensif
Visi : 
Plafond : 
>= 8 km
>= 3000ft
5 à 8 km
1000 à 3000 ft
1500m à 5 km
500 à 1000 ft
800 à 1500m
200 à 500 ft
< 800m
< 200 ft
Symboles :   Orages  Brouillard  Fortes neiges  Fortes précipitations  Vent > 20 kt







- Altitude de l'aérodrome : 354 ft
- Code IATA : MCN


KMCN - Middle Georgia Regional

DERNIER METAR :
  • 220953Z AUTO 00000KT 10SM CLR 14/13 A3021 RMK AO2 SLP224 T01390128

METARs EXPIRÉS :
  • 220853Z AUTO 25003KT 10SM CLR 14/13 A3020 RMK AO2 SLP222 T01440133 55003
  • 220753Z AUTO 00000KT 10SM CLR 15/13 A3019 RMK AO2 SLP219 T01500133

TAF KMCN
Valide du 22 à 06h jusqu'au 23 à 06h UTC


220545Z 2206/2306 10004KT P6SM SKC
FM230200 00000KT P6SM SKC
Pas de NOTAMs connus pour ce terrain.



MET'MAP, la Météo Aéronautique d'un coup d'oeil ! - Copyright ORBIFLY Décembre 2007 - Disclaimer

ORBIFLY MET'MAP TEAM :

Programmation & Développement : Alexandra Zaïnal
Conception & Développement : Baudouin d'Aumeries
Co-Programmation & Développement : Marc-Olivier Méhu
Soutien technique & logistique : Manuel Goepfert

Contact : metmap@orbifly.com




SOURCES & CREDITS :

   NOAA       Earth
Advisory